Oscoda, MI

12:31 AM EST on December 15, 2019 (GMT -0500)
Oscoda-Wurtsmith

Weather History for KOSC - October, 2019

Change the Weather History Date:

Sunday, October 13, 2019

  Actual Average Record
Temperature  
Mean Temperature 44 °F -  
Max Temperature 50 °F 56 °F 82 °F (2008)
Min Temperature 37 °F 38 °F 26 °F (2012)
Degree Days  
Heating Degree Days 21    
Moisture  
Dew Point 38 °F    
Average Humidity 76    
Maximum Humidity 93    
Minimum Humidity 54    
Precipitation  
Precipitation 0.09 in - - ()
Sea Level Pressure  
Sea Level Pressure 29.77 in    
Wind  
Wind Speed 14 mph (SW)    
Max Wind Speed 24 mph    
Max Gust Speed 40 mph    
Visibility 9 miles    
Events Rain    
Averages and records for this station are not official NWS values.
T = Trace of Precipitation, MM = Missing Value Source: NWS Daily Summary

Daily Weather History Graph

Daily Weather History Graph

Search for Another Location

Airport or City:

Astronomy

Oct. 13, 2019 Rise Set
Actual Time 7:45 AM EDT 6:53 PM EDT
Civil Twilight 7:16 AM EDT 7:22 PM EDT
Nautical Twilight 6:42 AM EDT 7:55 PM EDT
Astronomical Twilight 6:09 AM EDT 8:29 PM EDT
Moon 7:17 PM EDT (10/13) 7:15 AM EDT (10/13)
Length of Visible Light 12h 05m
Length of Day
11h 07m
Full, 100% of the Moon is Illuminated
Oct 13
Full
Oct 13
Full
Oct 21
Last Quarter
Oct 27
New
Nov 4
First Quarter

Hourly Weather History & Observations

Time (EDT) Temp. Windchill Dew Point Humidity Pressure Visibility Wind Dir Wind Speed Gust Speed Precip Events Conditions
12:17 AM 49.1 °F - 36.3 °F 61% 29.84 in 10.0 mi SSW 16.1 mph 25.3 mph N/A   Overcast
12:35 AM 50.2 °F - 34.7 °F 55% 29.83 in 10.0 mi SSW 10.4 mph 18.4 mph N/A   Overcast
12:55 AM 50.0 °F - 34.0 °F 54% 29.82 in 10.0 mi SSW 12.7 mph 21.9 mph N/A   Overcast
1:15 AM 50.0 °F - 34.2 °F 55% 29.81 in 10.0 mi SSW 15.0 mph 25.3 mph N/A   Overcast
1:20 AM 49.6 °F - 34.2 °F 55% 29.81 in 10.0 mi SSW 16.1 mph 21.9 mph N/A   Overcast
1:38 AM 49.3 °F - 34.5 °F 57% 29.80 in 10.0 mi SSW 15.0 mph 19.6 mph N/A   Mostly Cloudy
1:56 AM 49.5 °F - 34.3 °F 56% 29.79 in 10.0 mi SSW 18.4 mph 21.9 mph N/A   Scattered Clouds
2:15 AM 49.6 °F - 34.0 °F 55% 29.78 in 10.0 mi SSW 18.4 mph 24.2 mph N/A   Clear
2:35 AM 49.6 °F - 34.0 °F 55% 29.78 in 10.0 mi SSW 16.1 mph 24.2 mph N/A   Clear
2:36 AM 49.6 °F - 34.0 °F 55% 29.78 in 10.0 mi SSW 17.3 mph 24.2 mph N/A   Clear
2:59 AM 49.8 °F - 34.2 °F 55% 29.77 in 10.0 mi SSW 16.1 mph 28.8 mph N/A   Clear
3:17 AM 49.6 °F - 34.0 °F 55% 29.76 in 10.0 mi SSW 16.1 mph 29.9 mph N/A   Clear
3:35 AM 49.5 °F - 34.2 °F 56% 29.76 in 10.0 mi SSW 19.6 mph 25.3 mph N/A   Clear
3:55 AM 49.3 °F - 34.2 °F 56% 29.75 in 10.0 mi SSW 19.6 mph - N/A   Clear
3:56 AM 49.3 °F - 34.2 °F 56% 29.76 in 10.0 mi SSW 18.4 mph 21.9 mph N/A   Clear
4:15 AM 49.3 °F - 34.7 °F 57% 29.75 in 10.0 mi SSW 16.1 mph 24.2 mph N/A   Clear
4:38 AM 49.3 °F - 34.7 °F 57% 29.75 in 10.0 mi SSW 19.6 mph 26.5 mph N/A   Clear
4:56 AM 49.1 °F - 35.1 °F 58% 29.75 in 10.0 mi SSW 13.8 mph 25.3 mph N/A   Clear
5:15 AM 49.3 °F - 35.2 °F 58% 29.74 in 10.0 mi SSW 13.8 mph 21.9 mph N/A   Clear
5:16 AM 49.3 °F - 35.2 °F 58% 29.75 in 10.0 mi SSW 12.7 mph 21.9 mph N/A   Clear
5:35 AM 49.3 °F - 35.6 °F 59% 29.75 in 10.0 mi SSW 16.1 mph 26.5 mph N/A   Clear
5:36 AM 49.3 °F - 35.6 °F 59% 29.75 in 10.0 mi SSW 16.1 mph 26.5 mph N/A   Clear
5:59 AM 49.1 °F - 35.6 °F 60% 29.75 in 10.0 mi SSW 16.1 mph 23.0 mph N/A   Scattered Clouds
6:16 AM 49.1 °F - 35.6 °F 60% 29.75 in 10.0 mi SSW 16.1 mph - N/A   Overcast
6:35 AM 48.9 °F - 36.0 °F 61% 29.75 in 10.0 mi SSW 13.8 mph 19.6 mph N/A   Overcast
6:36 AM 48.9 °F - 36.0 °F 61% 29.75 in 10.0 mi SSW 12.7 mph 19.6 mph N/A   Overcast
6:55 AM 49.1 °F - 36.0 °F 61% 29.76 in 10.0 mi SSW 18.4 mph 24.2 mph N/A   Overcast
6:56 AM 49.1 °F - 36.0 °F 61% 29.75 in 10.0 mi SSW 17.3 mph 24.2 mph N/A   Overcast
7:15 AM 49.1 °F - 36.0 °F 61% 29.75 in 10.0 mi SSW 16.1 mph 25.3 mph N/A   Overcast
7:38 AM 49.1 °F - 36.0 °F 61% 29.75 in 10.0 mi SSW 19.6 mph - N/A   Overcast
7:56 AM 48.7 °F - 36.1 °F 62% 29.75 in 10.0 mi SSW 13.8 mph 24.2 mph N/A   Overcast
8:15 AM 48.6 °F - 36.0 °F 62% 29.75 in 10.0 mi SSW 17.3 mph 24.2 mph N/A   Overcast
8:35 AM 48.6 °F - 35.8 °F 61% 29.75 in 10.0 mi SSW 13.8 mph 21.9 mph N/A   Overcast
8:59 AM 48.2 °F - 35.8 °F 62% 29.75 in 10.0 mi SW 15.0 mph 19.6 mph N/A   Overcast
9:17 AM 48.2 °F - 35.8 °F 62% 29.76 in 10.0 mi SW 10.4 mph 21.9 mph N/A   Overcast
9:35 AM 47.8 °F - 36.5 °F 65% 29.76 in 10.0 mi SW 13.8 mph 21.9 mph N/A   Overcast
9:55 AM 47.3 °F - 37.4 °F 68% 29.75 in 10.0 mi SSW 17.3 mph 25.3 mph N/A   Drizzle
10:15 AM 46.9 °F - 37.6 °F 70% 29.75 in 7.0 mi SW 21.9 mph 27.6 mph N/A   Drizzle
10:38 AM 45.5 °F 36.9 °F 38.5 °F 76% 29.76 in 5.0 mi WSW 24.2 mph 36.8 mph N/A Rain Light Rain
10:56 AM 45.0 °F 36.2 °F 38.7 °F 79% 29.76 in 7.0 mi WSW 24.2 mph 40.3 mph N/A   Light Drizzle
11:15 AM 44.8 °F 38.3 °F 39.2 °F 81% 29.76 in 10.0 mi SW 13.8 mph 23.0 mph N/A Rain Light Rain
11:16 AM 44.8 °F 38.3 °F 39.4 °F 81% 29.76 in 10.0 mi SW 13.8 mph - N/A Rain Light Rain
11:35 AM 44.8 °F 38.7 °F 40.1 °F 84% 29.76 in 5.0 mi SW 12.7 mph - 0.01 in Rain Light Rain
11:36 AM 44.8 °F 39.0 °F 40.1 °F 84% 29.76 in 5.0 mi SW 11.5 mph - 0.01 in Rain Light Rain
11:59 AM 44.8 °F 40.4 °F 41.0 °F 87% 29.76 in 5.0 mi WSW 8.1 mph - 0.02 in Rain Light Rain
12:17 PM 44.4 °F 39.5 °F 40.6 °F 87% 29.75 in 5.0 mi WSW 9.2 mph - N/A Rain Light Rain
12:35 PM 43.9 °F 39.9 °F 40.8 °F 89% 29.75 in 3.0 mi West 6.9 mph - 0.02 in Rain Light Rain
12:36 PM 43.9 °F 39.3 °F 41.0 °F 90% 29.75 in 4.0 mi WSW 8.1 mph - 0.02 in Rain Light Rain
12:55 PM 43.7 °F 39.1 °F 41.4 °F 91% 29.75 in 3.0 mi WSW 8.1 mph - 0.03 in Rain Light Rain
12:56 PM 43.7 °F 39.1 °F 41.4 °F 91% 29.75 in 3.0 mi SW 8.1 mph - 0.03 in Rain Light Rain
1:15 PM 44.2 °F 39.2 °F 41.9 °F 91% 29.75 in 7.0 mi West 9.2 mph - N/A Rain Light Rain
1:38 PM 43.7 °F 37.3 °F 41.4 °F 91% 29.75 in 5.0 mi WSW 12.7 mph - 0.01 in Rain Light Rain
1:56 PM 43.7 °F 38.1 °F 40.8 °F 90% 29.74 in 10.0 mi SW 10.4 mph - 0.02 in Rain Light Rain
2:15 PM 43.9 °F 38.8 °F 41.5 °F 91% 29.73 in 10.0 mi SW 9.2 mph - N/A Rain Light Rain
2:16 PM 43.9 °F 39.3 °F 41.5 °F 91% 29.73 in 7.0 mi SW 8.1 mph - N/A Rain Light Rain
2:35 PM 44.1 °F 39.0 °F 41.9 °F 92% 29.73 in 7.0 mi SW 9.2 mph - 0.01 in Rain Light Rain
2:59 PM 44.2 °F 38.0 °F 41.9 °F 91% 29.73 in 5.0 mi SW 12.7 mph 17.3 mph 0.01 in Rain Light Rain
3:17 PM 44.1 °F 37.7 °F 41.4 °F 90% 29.73 in 7.0 mi WSW 12.7 mph 17.3 mph 0.01 in Rain Light Rain
3:35 PM 44.2 °F 38.8 °F 41.7 °F 91% 29.73 in 10.0 mi West 10.4 mph - 0.01 in Rain Rain
3:36 PM 44.2 °F 38.4 °F 41.7 °F 91% 29.73 in 10.0 mi West 11.5 mph - 0.01 in Rain Light Rain
3:55 PM 42.8 °F 35.8 °F 39.4 °F 88% 29.74 in 10.0 mi West 13.8 mph - 0.01 in   Overcast
4:15 PM 42.8 °F 37.0 °F 39.4 °F 88% 29.74 in 10.0 mi WSW 10.4 mph - N/A   Overcast
4:20 PM 42.8 °F 36.6 °F 39.6 °F 88% 29.74 in 10.0 mi SW 11.5 mph - N/A   Overcast
4:38 PM 42.3 °F 36.3 °F 39.4 °F 90% 29.74 in 10.0 mi SW 10.4 mph - N/A   Overcast
4:56 PM 42.1 °F 35.7 °F 38.7 °F 88% 29.74 in 10.0 mi SW 11.5 mph - N/A   Overcast
5:15 PM 41.9 °F 35.9 °F 38.8 °F 89% 29.75 in 10.0 mi SW 10.4 mph - N/A   Overcast
5:16 PM 41.9 °F 35.4 °F 39.0 °F 90% 29.75 in 10.0 mi SW 11.5 mph 16.1 mph N/A   Overcast
5:35 PM 41.9 °F 35.0 °F 38.8 °F 89% 29.75 in 10.0 mi WSW 12.7 mph - N/A   Overcast
5:36 PM 41.9 °F 35.4 °F 38.8 °F 89% 29.75 in 10.0 mi WSW 11.5 mph - N/A   Overcast
5:59 PM 42.3 °F 35.1 °F 39.2 °F 89% 29.75 in 10.0 mi SW 13.8 mph - N/A   Overcast
6:17 PM 41.9 °F 34.6 °F 38.7 °F 88% 29.76 in 10.0 mi WSW 13.8 mph 18.4 mph N/A   Overcast
6:35 PM 41.9 °F 33.7 °F 38.8 °F 89% 29.78 in 10.0 mi West 17.3 mph 20.7 mph N/A   Overcast
6:55 PM 41.4 °F 34.3 °F 38.3 °F 89% 29.78 in 10.0 mi WSW 12.7 mph - N/A   Overcast
7:15 PM 41.2 °F 36.0 °F 38.5 °F 90% 29.79 in 10.0 mi SW 8.1 mph - N/A   Overcast
7:38 PM 41.2 °F 34.5 °F 37.6 °F 87% 29.80 in 10.0 mi WSW 11.5 mph 16.1 mph N/A   Overcast
7:56 PM 41.0 °F 35.8 °F 37.8 °F 88% 29.80 in 10.0 mi SW 8.1 mph - N/A   Overcast
8:15 PM 41.0 °F 34.3 °F 37.4 °F 87% 29.80 in 10.0 mi WSW 11.5 mph - N/A   Overcast
8:35 PM 40.6 °F 36.7 °F 37.4 °F 88% 29.81 in 10.0 mi WSW 5.8 mph - N/A   Overcast
8:59 PM 41.0 °F 35.8 °F 37.8 °F 88% 29.80 in 10.0 mi SW 8.1 mph - N/A   Overcast
9:17 PM 40.8 °F 35.6 °F 37.9 °F 89% 29.81 in 10.0 mi SW 8.1 mph - N/A   Overcast
9:36 PM 41.0 °F 35.2 °F 37.9 °F 89% 29.81 in 10.0 mi SW 9.2 mph - N/A   Overcast
9:55 PM 40.6 °F 33.8 °F 37.6 °F 89% 29.81 in 10.0 mi SW 11.5 mph - N/A   Overcast
10:15 PM 39.9 °F 33.4 °F 36.9 °F 89% 29.81 in 10.0 mi SW 10.4 mph - N/A   Mostly Cloudy
10:38 PM 39.2 °F 32.5 °F 36.7 °F 91% 29.81 in 10.0 mi SW 10.4 mph - N/A   Clear
10:56 PM 39.0 °F 32.3 °F 36.7 °F 91% 29.82 in 10.0 mi SW 10.4 mph - N/A   Clear
11:15 PM 38.5 °F 31.1 °F 36.5 °F 93% 29.81 in 10.0 mi SW 11.5 mph - N/A   Clear
11:35 PM 38.3 °F 31.4 °F 36.5 °F 93% 29.81 in 10.0 mi SW 10.4 mph - N/A   Clear
11:59 PM 37.9 °F 30.0 °F 35.6 °F 91% 29.81 in 10.0 mi WSW 12.7 mph - N/A   Clear